Latest Weather Observations for Perth Airport

IDW60801

Issued at 3:33 am WST Wednesday 18 July 2018 (issued every 10 minutes, with the page automatically refreshed every 10 minutes)

About weather observations | Map of weather stations | Latest weather observations for WA | Other Formats
Station Details ID: 009021 Name: PERTH AIRPORT Lat: -31.93 Lon: 115.98 Height: 15.4 m
Data from the previous 72 hours. | See also: Recent months at Perth Airport
Date/Time
WST
Temp
°C
App
Temp
°C
Dew
Point
°C
Rel
Hum
%
Delta-T
°C
Wind Press
QNH
hPa
Press
MSL
hPa
Rain since
9am
mm
Dir  Spd
km/h
Gust
km/h
Spd
kts
Gust
kts
18/03:00am 15.3 12.5 8.4 63 3.5 W 13 20 7 11 1016.0 1016.0 0.0
18/02:30am 15.8 12.4 9.0 64 3.5 WNW 17 24 9 13 1016.1 1016.1 0.0
18/02:00am 15.9 12.7 7.0 55 4.4 W 13 19 7 10 1016.2 1016.2 0.0
18/01:30am 16.0 12.4 8.5 61 3.8 W 17 26 9 14 1016.3 1016.3 0.0
18/01:00am 15.9 12.2 7.9 59 4.0 W 17 30 9 16 1016.4 1016.4 0.0
18/12:30am 16.1 12.1 6.7 53 4.6 WNW 17 28 9 15 1016.4 1016.4 0.0
18/12:00am 16.1 12.0 6.2 52 4.8 WNW 17 30 9 16 1016.6 1016.6 0.0
 
Date/Time
WST
Temp
°C
App
Temp
°C
Dew
Point
°C
Rel
Hum
%
Delta-T
°C
Wind Press
QNH
hPa
Press
MSL
hPa
Rain since
9am
mm
Dir  Spd
km/h
Gust
km/h
Spd
kts
Gust
kts
17/11:30pm 15.9 12.4 8.6 62 3.7 WNW 17 26 9 14 1016.8 1016.8 0.0
17/11:00pm 15.8 12.5 8.0 60 3.9 WNW 15 26 8 14 1017.1 1017.1 0.0
17/10:30pm 15.7 12.3 7.7 59 4.0 WNW 15 19 8 10 1017.2 1017.2 0.0
17/10:00pm 15.7 12.4 6.4 54 4.5 NW 13 19 7 10 1017.4 1017.4 0.0
17/09:30pm 16.0 11.3 6.1 52 4.8 NW 20 28 11 15 1017.5 1017.5 0.0
17/09:00pm 15.9 12.4 7.2 56 4.3 WNW 15 19 8 10 1017.7 1017.7 0.0
17/08:30pm 16.0 12.8 6.8 54 4.5 WNW 13 17 7 9 1017.6 1017.6 0.0
17/08:00pm 16.0 12.4 6.6 53 4.6 WNW 15 20 8 11 1017.7 1017.7 0.0
17/07:30pm 15.9 11.7 7.5 57 4.2 NW 19 28 10 15 1017.6 1017.6 0.0
17/07:00pm 15.9 12.9 7.9 59 4.0 WNW 13 17 7 9 1017.7 1017.7 0.0
17/06:34pm 16.1 12.6 7.0 54 4.5 WNW 15 26 8 14 1017.5 1017.5 0.0
17/06:30pm 16.1 12.5 6.7 53 4.6 WNW 15 20 8 11 1017.5 1017.5 0.0
17/06:00pm 15.8 12.9 8.0 60 3.9 WNW 13 19 7 10 1017.5 1017.5 0.0
17/05:30pm 16.0 12.7 8.1 59 4.0 NW 15 20 8 11 1017.4 1017.4 0.0
17/05:00pm 16.1 12.0 7.7 57 4.2 NW 19 30 10 16 1017.3 1017.3 0.0
17/04:30pm 16.3 11.9 7.2 55 4.5 WNW 20 28 11 15 1017.4 1017.4 0.0
17/04:00pm 16.8 12.0 5.6 47 5.4 W 20 33 11 18 1017.4 1017.4 0.0
17/03:30pm 16.7 11.8 7.0 52 4.8 WNW 22 32 12 17 1017.2 1017.2 0.0
17/03:00pm 16.8 11.9 6.9 52 4.9 WNW 22 30 12 16 1017.2 1017.2 0.0
17/02:30pm 16.9 11.5 6.5 50 5.1 WNW 24 33 13 18 1017.1 1017.1 0.0
17/02:00pm 17.1 11.2 7.3 52 4.9 WNW 28 41 15 22 1017.0 1017.0 0.0
17/01:30pm 17.5 11.6 7.3 51 5.1 WNW 28 37 15 20 1017.2 1017.2 0.0
17/01:00pm 17.4 12.3 7.7 53 4.9 WNW 24 33 13 18 1017.5 1017.5 0.0
17/12:30pm 17.4 10.9 6.7 49 5.3 NW 30 39 16 21 1017.6 1017.6 0.0
17/12:00pm 18.2 12.5 6.8 47 5.7 WNW 26 35 14 19 1017.8 1017.8 0.0
17/11:30am 17.1 12.8 7.0 51 5.0 NW 19 28 10 15 1018.1 1018.1 0.0
17/11:00am 17.8 13.0 7.2 50 5.3 WNW 22 32 12 17 1018.3 1018.3 0.0
17/10:30am 17.0 12.0 6.6 50 5.1 NW 22 28 12 15 1018.4 1018.4 0.0
17/10:00am 15.7 12.7 7.9 59 3.9 NW 13 24 7 13 1018.5 1018.5 0.0
17/09:30am 14.1 11.6 8.3 68 2.9 NNE 11 11 6 6 1018.3 1018.3 0.0
17/09:19am 13.9 11.8 8.3 69 2.8 NNE 9 11 5 6 1018.2 1018.2 0.0
17/09:00am 13.0 10.2 8.4 73 2.3 NNE 13 15 7 8 1018.1 1018.1 1.8
17/08:30am 11.4 8.5 8.1 80 1.6 NE 13 15 7 8 1018.0 1018.0 1.8
17/08:00am 9.2 6.6 7.7 90 0.7 NNE 11 15 6 8 1018.0 1018.0 1.8
17/07:30am 8.4 6.4 7.3 93 0.5 NE 7 9 4 5 1017.9 1017.9 1.8
17/07:00am 9.0 6.7 7.3 89 0.8 NNE 9 11 5 6 1017.4 1017.4 1.8
17/06:30am 9.3 7.0 7.6 89 0.8 NE 9 13 5 7 1017.1 1017.1 1.8
17/06:00am 10.0 7.4 7.9 87 1.0 NNE 11 13 6 7 1016.9 1016.9 1.8
17/05:30am 10.2 8.2 8.6 90 0.8 N 9 11 5 6 1016.9 1016.9 1.8
17/05:00am 9.8 8.3 8.4 91 0.7 NE 6 7 3 4 1016.7 1016.7 1.8
17/04:30am 10.4 8.4 8.8 90 0.8 NNE 9 9 5 5 1016.5 1016.5 1.8
17/04:00am 10.4 8.8 8.6 89 0.9 NNE 7 9 4 5 1016.7 1016.7 1.8
17/03:30am 10.4 8.9 8.3 87 1.0 ENE 6 9 3 5 1016.6 1016.6 1.8
17/03:00am 10.7 8.5 7.8 82 1.4 NE 9 11 5 6 1016.7 1016.7 1.8
17/02:30am 11.0 8.3 8.8 86 1.1 ENE 13 13 7 7 1016.7 1016.7 1.8
17/02:00am 10.6 8.2 8.8 89 0.9 E 11 22 6 12 1016.9 1016.9 1.8
17/01:30am 10.9 9.2 8.5 85 1.2 NNW 7 7 4 4 1016.8 1016.8 1.8
17/01:00am 10.6 10.1 7.9 83 1.3 CALM 0 0 0 0 1016.7 1016.7 1.8
17/12:30am 12.2 10.4 7.9 75 2.1 SSW 7 9 4 5 1016.9 1016.9 1.8
17/12:00am 13.6 11.4 7.7 67 2.9 SSW 9 11 5 6 1017.0 1017.0 1.8
 
Date/Time
WST
Temp
°C
App
Temp
°C
Dew
Point
°C
Rel
Hum
%
Delta-T
°C
Wind Press
QNH
hPa
Press
MSL
hPa
Rain since
9am
mm
Dir  Spd
km/h
Gust
km/h
Spd
kts
Gust
kts
16/11:30pm 13.5 11.1 8.5 72 2.5 SW 11 15 6 8 1017.0 1017.0 1.8
16/11:00pm 13.7 10.6 8.7 72 2.5 SW 15 17 8 9 1016.9 1016.9 1.8
16/10:30pm 13.8 9.9 9.3 74 2.3 SW 20 26 11 14 1016.9 1016.9 1.8
16/10:00pm 12.8 10.0 8.4 74 2.2 SSW 13 17 7 9 1016.6 1016.6 1.8
16/09:30pm 13.9 10.0 6.9 62 3.4 SW 17 20 9 11 1016.4 1016.4 1.8
16/09:00pm 14.0 10.3 6.5 60 3.6 SW 15 22 8 12 1016.4 1016.4 1.8
16/08:30pm 14.1 10.3 7.6 65 3.2 SW 17 26 9 14 1016.2 1016.2 1.8
16/08:00pm 14.8 10.3 8.4 65 3.2 SW 22 32 12 17 1015.8 1015.8 1.8
16/07:30pm 15.2 11.2 9.2 67 3.1 WSW 20 28 11 15 1015.5 1015.5 1.8
16/07:00pm 15.3 11.3 10.4 72 2.6 SW 22 32 12 17 1015.1 1015.1 1.8
16/06:30pm 15.4 12.0 10.7 73 2.5 WSW 19 32 10 17 1014.8 1014.8 1.8
16/06:00pm 14.8 9.4 10.8 77 2.1 WSW 30 44 16 24 1014.3 1014.3 1.8
16/05:40pm 14.8 11.3 12.2 84 1.4 WSW 22 33 12 18 1014.5 1014.5 1.6
16/05:30pm 14.7 9.6 11.9 83 1.5 WSW 30 43 16 23 1014.4 1014.4 1.6
16/05:05pm 17.2 11.7 9.1 59 4.2 WSW 28 46 15 25 1014.0 1014.0 1.2
16/05:00pm 17.2 11.4 9.3 59 4.1 WSW 30 46 16 25 1014.0 1014.0 1.2
16/04:59pm 17.2 11.7 9.3 59 4.1 WSW 28 46 15 25 1014.0 1014.0 1.2
16/04:30pm 17.6 12.9 9.2 58 4.4 W 24 37 13 20 1013.8 1013.8 1.2
16/04:16pm 17.1 11.6 9.2 59 4.1 WSW 28 46 15 25 1013.9 1013.9 1.2
16/04:00pm 17.5 11.1 9.3 58 4.3 WSW 33 48 18 26 1013.9 1013.9 1.2
16/03:30pm 16.8 12.1 12.1 74 2.6 W 28 37 15 20 1013.8 1013.8 1.2
16/03:19pm 16.3 11.6 11.9 75 2.4 WSW 28 48 15 26 1013.7 1013.7 1.2
16/03:00pm 16.6 11.7 11.4 71 2.8 WSW 28 35 15 19 1013.5 1013.5 1.2
16/02:39pm 17.2 11.7 10.4 64 3.6 WSW 30 52 16 28 1013.5 1013.5 1.2
16/02:37pm 17.9 13.2 10.6 62 3.9 W 26 52 14 28 1013.5 1013.5 1.2
16/02:30pm 17.7 14.4 11.5 67 3.4 W 20 33 11 18 1013.4 1013.4 1.2
16/02:00pm 16.8 11.3 10.4 66 3.4 W 30 48 16 26 1013.3 1013.3 1.2
16/01:57pm 17.4 12.3 10.7 65 3.6 W 28 48 15 26 1013.3 1013.3 1.2
16/01:30pm 17.3 12.1 10.3 63 3.7 W 28 41 15 22 1013.2 1013.2 1.2
16/01:00pm 17.5 12.0 9.3 58 4.3 W 28 41 15 22 1013.2 1013.2 1.2
16/12:31pm 17.2 12.0 10.2 63 3.7 W 28 46 15 25 1013.5 1013.5 1.2
16/12:30pm 17.1 11.9 10.1 63 3.7 W 28 41 15 22 1013.6 1013.6 1.2
16/12:06pm 17.5 11.5 8.8 56 4.5 W 30 48 16 26 1013.9 1013.9 1.2
16/12:00pm 17.1 10.4 8.3 56 4.5 W 33 48 18 26 1013.9 1013.9 1.2
16/11:30am 16.7 11.7 10.9 68 3.1 W 28 48 15 26 1014.1 1014.1 1.2
16/11:25am 16.5 11.3 11.5 72 2.7 WSW 30 48 16 26 1014.1 1014.1 1.2
16/11:00am 16.1 12.4 12.7 80 1.9 W 24 46 13 25 1014.3 1014.3 1.2
16/10:55am 15.5 11.1 13.0 85 1.4 W 28 46 15 25 1014.3 1014.3 1.2
16/10:53am 15.4 11.4 12.9 85 1.4 W 26 41 14 22 1014.3 1014.3 1.2
16/10:30am 16.4 12.3 12.6 78 2.1 W 26 35 14 19 1014.3 1014.3 0.8
16/10:00am 15.9 12.7 13.2 84 1.5 W 22 39 12 21 1014.1 1014.1 0.6
16/09:30am 15.8 13.2 13.3 85 1.4 W 19 32 10 17 1014.0 1014.0 0.6
16/09:00am 15.3 12.6 13.5 89 1.0 W 20 35 11 19 1014.0 1014.0 8.8
16/08:30am 14.7 11.6 13.3 91 0.8 WNW 22 39 12 21 1013.9 1013.9 8.4
16/08:22am 14.6 11.5 13.3 92 0.7 W 22 39 12 21 1013.9 1013.9 8.4
16/08:00am 15.1 12.1 11.8 81 1.8 WNW 19 28 10 15 1013.5 1013.5 7.6
16/07:30am 14.4 12.0 12.6 89 1.0 NW 17 24 9 13 1013.4 1013.4 7.6
16/07:00am 14.2 13.0 12.7 91 0.8 NW 11 15 6 8 1013.2 1013.2 7.4
16/06:30am 14.3 12.2 12.5 89 1.0 WNW 15 19 8 10 1013.1 1013.1 7.4
16/06:22am 14.3 11.5 12.5 89 1.0 WNW 19 32 10 17 1013.0 1013.0 7.4
16/06:00am 14.6 11.9 12.8 89 1.0 WNW 19 35 10 19 1013.4 1013.4 7.2
16/05:30am 15.0 11.9 12.2 83 1.5 WNW 20 35 11 19 1013.2 1013.2 7.2
16/05:00am 14.5 11.4 11.5 82 1.6 WNW 19 26 10 14 1013.3 1013.3 7.0
16/04:30am 14.2 13.1 13.1 93 0.6 NNW 11 13 6 7 1013.7 1013.7 6.6
16/04:00am 14.2 11.9 13.1 93 0.6 WNW 17 28 9 15 1013.9 1013.9 6.6
16/03:48am 14.2 13.5 13.1 93 0.6 NW 9 13 5 7 1014.0 1014.0 6.2
16/03:45am 14.1 13.0 13.2 94 0.5 NW 11 17 6 9 1014.0 1014.0 6.2
16/03:30am 14.3 12.3 12.8 91 0.8 WNW 15 28 8 15 1014.2 1014.2 6.0
16/03:00am 14.5 11.5 12.7 89 1.0 WNW 20 35 11 19 1014.4 1014.4 5.8
16/02:30am 15.2 13.7 11.9 81 1.8 NW 11 13 6 7 1014.5 1014.5 5.4
16/02:00am 15.4 12.5 11.1 75 2.3 WNW 17 28 9 15 1014.6 1014.6 5.4
16/01:30am 15.3 12.4 11.0 75 2.3 NW 17 20 9 11 1014.8 1014.8 5.4
16/01:00am 14.9 12.8 11.1 78 2.0 WNW 13 20 7 11 1015.1 1015.1 5.4
16/12:30am 14.5 13.4 11.9 84 1.4 NW 9 13 5 7 1015.3 1015.3 5.4
16/12:00am 14.0 11.3 11.8 86 1.2 NNW 17 20 9 11 1015.8 1015.8 5.4
 
Date/Time
WST
Temp
°C
App
Temp
°C
Dew
Point
°C
Rel
Hum
%
Delta-T
°C
Wind Press
QNH
hPa
Press
MSL
hPa
Rain since
9am
mm
Dir  Spd
km/h
Gust
km/h
Spd
kts
Gust
kts
15/11:30pm 14.2 12.7 12.0 87 1.2 W 11 15 6 8 1016.4 1016.4 5.4
15/11:00pm 14.6 10.5 11.4 81 1.7 WNW 24 41 13 22 1016.8 1016.8 5.4
15/10:55pm 14.5 11.2 10.9 79 1.9 NW 19 41 10 22 1016.7 1016.7 5.4
15/10:30pm 14.1 12.1 11.5 84 1.4 NW 13 17 7 9 1016.5 1016.5 5.2
15/10:00pm 13.8 11.0 11.5 86 1.2 WNW 17 28 9 15 1016.7 1016.7 5.2
15/09:30pm 13.6 11.9 12.5 93 0.6 NW 13 19 7 10 1017.1 1017.1 4.8
15/09:00pm 13.7 11.5 12.2 91 0.8 NNW 15 22 8 12 1017.0 1017.0 4.6
15/08:30pm 14.0 12.5 12.0 88 1.1 WNW 11 19 6 10 1017.3 1017.3 3.4
15/08:00pm 13.9 11.8 12.4 91 0.8 NW 15 20 8 11 1017.1 1017.1 3.2
15/07:30pm 13.9 11.9 11.5 85 1.3 NNW 13 15 7 8 1017.0 1017.0 3.2
15/07:00pm 14.8 12.0 10.0 73 2.5 NNW 15 17 8 9 1016.8 1016.8 3.0
15/06:30pm 14.8 10.7 10.0 73 2.5 NW 22 32 12 17 1016.6 1016.6 3.0
15/06:00pm 14.3 12.2 11.3 82 1.6 NW 13 26 7 14 1016.8 1016.8 3.0
15/05:30pm 14.8 12.5 10.6 76 2.2 NNW 13 19 7 10 1016.6 1016.6 3.0
15/05:00pm 15.6 11.4 9.8 68 3.0 NW 22 28 12 15 1016.3 1016.3 3.0
15/04:30pm 15.0 12.7 10.4 74 2.4 NW 13 19 7 10 1016.4 1016.4 3.0
15/04:00pm 15.1 11.6 10.3 73 2.5 W 19 28 10 15 1016.9 1016.9 3.0
15/03:30pm 16.0 12.0 10.5 70 2.9 WSW 22 35 12 19 1016.6 1016.6 3.0
15/03:00pm 16.7 14.2 9.8 63 3.6 W 13 19 7 10 1016.5 1016.5 3.0
15/02:36pm 15.5 13.7 12.0 79 1.9 NW 13 17 7 9 1016.6 1016.6 3.0
15/02:30pm 15.4 13.8 12.9 85 1.4 NW 13 17 7 9 1016.6 1016.6 3.0
15/02:00pm 14.5 13.1 12.3 87 1.2 W 11 15 6 8 1016.6 1016.6 3.0
15/01:53pm 14.1 12.8 12.4 89 0.9 WSW 11 15 6 8 1016.7 1016.7 3.0
15/01:30pm 15.0 11.4 12.0 82 1.6 WSW 22 30 12 16 1016.7 1016.7 2.4
15/01:00pm 16.5 15.8 11.9 74 2.5 NW 7 11 4 6 1016.6 1016.6 2.2
15/12:42pm 14.9 14.0 12.5 85 1.3 N 9 9 5 5 1016.9 1016.9 2.2
15/12:30pm 13.7 13.2 12.6 93 0.6 N 7 9 4 5 1017.0 1017.0 2.2
15/12:12pm 14.0 12.9 11.8 86 1.2 N 9 9 5 5 1017.4 1017.4 0.8
15/12:00pm 14.4 12.8 11.6 83 1.5 NNE 11 13 6 7 1017.2 1017.2 0.0
15/11:30am 15.0 13.5 10.6 75 2.3 N 9 13 5 7 1017.7 1017.7 0.0
15/11:00am 13.5 11.7 11.0 85 1.3 N 11 13 6 7 1017.8 1017.8 0.0
15/10:30am 13.1 11.4 11.2 88 1.0 NNE 11 13 6 7 1018.0 1018.0 0.0
15/10:00am 11.9 10.6 10.1 89 0.9 NNE 7 9 4 5 1018.2 1018.2 0.0
15/09:30am 11.6 9.6 10.2 91 0.7 N 11 13 6 7 1017.8 1017.8 0.0
15/09:00am 10.7 8.2 9.7 93 0.5 N 13 17 7 9 1017.6 1017.6 24.0
15/08:30am 10.3 8.1 9.3 93 0.5 ENE 11 15 6 8 1017.3 1017.3 24.0
15/08:00am 9.4 6.6 8.6 95 0.4 NE 13 19 7 10 1017.1 1017.1 24.0
15/07:30am 8.8 6.0 8.4 97 0.2 NNE 13 19 7 10 1017.0 1017.0 24.0
15/07:00am 8.6 5.7 8.2 97 0.2 E 13 17 7 9 1016.4 1016.4 24.0
15/06:30am 8.3 5.3 7.9 97 0.2 N 13 17 7 9 1016.1 1016.1 24.0
15/06:00am 8.4 5.5 8.0 97 0.2 E 13 15 7 8 1015.6 1015.6 24.0
15/05:30am 9.1 7.1 8.7 97 0.2 N 9 11 5 6 1015.3 1015.3 24.0
15/05:00am 8.8 6.8 8.6 99 0.1 N 9 13 5 7 1015.3 1015.3 23.8
15/04:30am 8.6 6.9 8.2 97 0.2 NE 7 9 4 5 1015.0 1015.0 23.6
15/04:00am 8.5 6.4 8.1 97 0.2 NE 9 11 5 6 1014.9 1014.9 23.6

Other Formats:

Comma delimited format used in spreadsheet applications
http://www.bom.gov.au/fwo/IDW60801/IDW60801.94610.axf

JavaScript Object Notation format (JSON) in row-major order
http://www.bom.gov.au/fwo/IDW60801/IDW60801.94610.json